Saturday, August 18, 2018, 1:53 PM EDT
Back to Local

KWAL, Wallops Flight Fac Airport

Location: Wallops Island, VA, United States Lat: 37.933
Local Time: 1:53 PM EDT (17:53 GMT) Lon: -75.467
Time Zone: US/Eastern Elev: 39 ft

Show me the last for .
Show Decoded

2018-08-18 12:54 METAR KWAL 181654Z AUTO 25006G14KT 10SM SCT022 31/24 A2990 RMK AO2 SLP122
                 T03060244 TSNO =
2018-08-18 11:54 METAR KWAL 181554Z AUTO 25011KT 10SM FEW019 30/24 A2992 RMK AO2 SLP127 T03000244
                 TSNO =
2018-08-18 10:54 METAR KWAL 181454Z AUTO 25009KT 10SM SCT019 29/24 A2993 RMK AO2 SLP131 T02940244
                 58001 TSNO =
2018-08-18 10:30 METAR KWAL 181430Z AUTO 25011G17KT 10SM SCT020 29/24 A2993 RMK AO2 T02940244
                 TSNO =
2018-08-18 09:54 METAR KWAL 181354Z AUTO 27010KT 10SM BKN020 29/24 A2993 RMK AO2 SLP132 T02940244
                 TSNO =
2018-08-18 08:54 METAR KWAL 181254Z AUTO 25010G16KT 10SM FEW021 29/25 A2993 RMK AO2 SLP132
                 T02940250 TSNO =
2018-08-18 07:54 METAR KWAL 181154Z AUTO 24009KT 10SM CLR 28/25 A2993 RMK AO2 SLP132 T02830250
                 10283 20267 58005 TSNO =
2018-08-18 06:54 METAR KWAL 181054Z AUTO 23006KT 10SM CLR 27/24 A2994 RMK AO2 SLP136 T02670244
                 TSNO =
2018-08-18 05:54 METAR KWAL 180954Z AUTO 22007KT 10SM CLR 27/24 A2994 RMK AO2 SLP135 T02670244
                 TSNO =
2018-08-18 04:54 METAR KWAL 180854Z AUTO 23006KT 10SM CLR 27/25 A2995 RMK AO2 SLP137 T02720250
                 56013 TSNO =
2018-08-18 03:54 METAR KWAL 180754Z AUTO 22006KT 10SM CLR 27/25 A2996 RMK AO2 SLP141 T02720250
                 TSNO =
2018-08-18 02:54 METAR KWAL 180654Z AUTO 21006KT 10SM CLR 27/25 A2996 RMK AO2 SLP144 T02720250
                 TSNO =
2018-08-18 01:54 METAR KWAL 180554Z AUTO 23009KT 10SM CLR 28/26 A2998 RMK AO2 SLP150 T02830256
                 10283 20272 56002 TSNO =
2018-08-18 00:54 METAR KWAL 180454Z AUTO 22008KT 9SM CLR 28/26 A2999 RMK AO2 SLP152 T02780256
                 403220250 TSNO =
2018-08-17 23:54 METAR KWAL 180354Z AUTO 20007KT 10SM CLR 28/26 A2998 RMK AO2 SLP149 T02780261
                 TSNO =
2018-08-17 22:54 METAR KWAL 180254Z AUTO 20006KT 10SM CLR 27/26 A2999 RMK AO2 SLP153 T02720261
                 58002 TSNO =
2018-08-17 21:54 METAR KWAL 180154Z AUTO 20008KT 10SM CLR 28/26 A3000 RMK AO2 SLP156 T02780261
                 TSNO =
2018-08-17 20:54 METAR KWAL 180054Z AUTO 20010KT 10SM CLR 28/26 A3000 RMK AO2 SLP155 T02780261
                 TSNO =
2018-08-17 19:54 METAR KWAL 172354Z AUTO 19013KT 10SM CLR 28/27 A3000 RMK AO2 SLP155 T02830267
                 10322 20283 56010 TSNO =
2018-08-17 17:54 METAR KWAL 172154Z AUTO 19012KT 10SM CLR 30/26 A3001 RMK AO2 SLP159 T03000256 =
2018-08-17 16:54 METAR KWAL 172054Z AUTO 18012KT 10SM CLR 31/24 A3003 RMK AO2 SLP165 T03110244
                 56015 =
2018-08-17 15:54 METAR KWAL 171954Z 19015KT 9SM CLR 31/26 A3004 RMK AO2 SLP168 T03110256 =
2018-08-17 14:54 METAR KWAL 171854Z 18013KT 9SM CLR 31/26 A3005 RMK AO2 SLP173 T03110261 =
2018-08-17 13:54 METAR KWAL 171754Z 19012KT 9SM CLR 32/27 A3007 RMK AO2 SLP179 T03170267 10322
                 20272 58010 =

Support USWX by starting your Amazon purchase here.